sensor_id;sensor_type;location;lat;lon;timestamp;temperature;humidity
6293;DHT22;3179;54.350;10.102;2023-04-25T00:02:11;11.30;99.90
6293;DHT22;3179;54.350;10.102;2023-04-25T00:04:40;11.30;99.90
6293;DHT22;3179;54.350;10.102;2023-04-25T00:07:07;11.30;99.90
6293;DHT22;3179;54.350;10.102;2023-04-25T00:09:33;11.30;99.90
6293;DHT22;3179;54.350;10.102;2023-04-25T00:12:00;11.30;99.90
6293;DHT22;3179;54.350;10.102;2023-04-25T00:14:28;11.30;99.90
6293;DHT22;3179;54.350;10.102;2023-04-25T00:16:55;11.30;99.90
6293;DHT22;3179;54.350;10.102;2023-04-25T00:19:23;11.20;99.90
6293;DHT22;3179;54.350;10.102;2023-04-25T00:21:51;11.20;99.90
6293;DHT22;3179;54.350;10.102;2023-04-25T00:24:19;11.20;99.90
6293;DHT22;3179;54.350;10.102;2023-04-25T00:26:45;11.20;99.90
6293;DHT22;3179;54.350;10.102;2023-04-25T00:29:13;11.20;99.90
6293;DHT22;3179;54.350;10.102;2023-04-25T00:31:39;11.20;99.90
6293;DHT22;3179;54.350;10.102;2023-04-25T00:34:06;11.10;99.90
6293;DHT22;3179;54.350;10.102;2023-04-25T00:36:33;11.10;99.90
6293;DHT22;3179;54.350;10.102;2023-04-25T00:39:01;11.20;99.90
6293;DHT22;3179;54.350;10.102;2023-04-25T00:41:30;11.20;99.90
6293;DHT22;3179;54.350;10.102;2023-04-25T00:43:57;11.20;99.90
6293;DHT22;3179;54.350;10.102;2023-04-25T00:46:25;11.10;99.90
6293;DHT22;3179;54.350;10.102;2023-04-25T00:48:52;11.10;99.90
6293;DHT22;3179;54.350;10.102;2023-04-25T00:51:20;11.00;99.90
6293;DHT22;3179;54.350;10.102;2023-04-25T00:53:49;11.00;99.90
6293;DHT22;3179;54.350;10.102;2023-04-25T00:56:17;11.00;99.90
6293;DHT22;3179;54.350;10.102;2023-04-25T00:58:44;11.00;99.90
6293;DHT22;3179;54.350;10.102;2023-04-25T01:01:11;10.90;99.90
6293;DHT22;3179;54.350;10.102;2023-04-25T01:03:39;10.90;99.90
6293;DHT22;3179;54.350;10.102;2023-04-25T01:06:08;10.90;99.90
6293;DHT22;3179;54.350;10.102;2023-04-25T01:08:36;10.90;99.90
6293;DHT22;3179;54.350;10.102;2023-04-25T01:11:03;10.90;99.90
6293;DHT22;3179;54.350;10.102;2023-04-25T01:13:32;10.90;99.90
6293;DHT22;3179;54.350;10.102;2023-04-25T01:15:59;10.90;99.90
6293;DHT22;3179;54.350;10.102;2023-04-25T01:18:26;10.90;99.90
6293;DHT22;3179;54.350;10.102;2023-04-25T01:20:53;10.80;99.90
6293;DHT22;3179;54.350;10.102;2023-04-25T01:23:22;10.80;99.90
6293;DHT22;3179;54.350;10.102;2023-04-25T01:25:49;10.80;99.90
6293;DHT22;3179;54.350;10.102;2023-04-25T01:28:17;10.70;99.90
6293;DHT22;3179;54.350;10.102;2023-04-25T01:30:44;10.70;99.90
6293;DHT22;3179;54.350;10.102;2023-04-25T01:33:13;10.70;99.90
6293;DHT22;3179;54.350;10.102;2023-04-25T01:35:40;10.70;99.90
6293;DHT22;3179;54.350;10.102;2023-04-25T01:38:07;10.60;99.90
6293;DHT22;3179;54.350;10.102;2023-04-25T01:40:37;10.60;99.90
6293;DHT22;3179;54.350;10.102;2023-04-25T01:43:05;10.60;99.90
6293;DHT22;3179;54.350;10.102;2023-04-25T01:45:33;10.60;99.90
6293;DHT22;3179;54.350;10.102;2023-04-25T01:48:02;10.60;99.90
6293;DHT22;3179;54.350;10.102;2023-04-25T01:50:28;10.60;99.90
6293;DHT22;3179;54.350;10.102;2023-04-25T01:52:57;10.50;99.90
6293;DHT22;3179;54.350;10.102;2023-04-25T01:55:23;10.50;99.90
6293;DHT22;3179;54.350;10.102;2023-04-25T01:57:52;10.50;99.90
6293;DHT22;3179;54.350;10.102;2023-04-25T02:00:18;10.50;99.90
6293;DHT22;3179;54.350;10.102;2023-04-25T02:02:46;10.50;99.90
6293;DHT22;3179;54.350;10.102;2023-04-25T02:05:13;10.50;99.90
6293;DHT22;3179;54.350;10.102;2023-04-25T02:07:40;10.50;99.90
6293;DHT22;3179;54.350;10.102;2023-04-25T02:10:07;10.50;99.90
6293;DHT22;3179;54.350;10.102;2023-04-25T02:12:35;10.40;99.90
6293;DHT22;3179;54.350;10.102;2023-04-25T02:15:04;10.40;99.90
6293;DHT22;3179;54.350;10.102;2023-04-25T02:17:31;10.40;99.90
6293;DHT22;3179;54.350;10.102;2023-04-25T02:19:58;10.40;99.80
6293;DHT22;3179;54.350;10.102;2023-04-25T02:22:25;10.30;99.80
6293;DHT22;3179;54.350;10.102;2023-04-25T02:24:55;10.30;99.80
6293;DHT22;3179;54.350;10.102;2023-04-25T02:27:22;10.30;99.80
6293;DHT22;3179;54.350;10.102;2023-04-25T02:29:49;10.30;99.70
6293;DHT22;3179;54.350;10.102;2023-04-25T02:32:17;10.20;99.70
6293;DHT22;3179;54.350;10.102;2023-04-25T02:34:43;10.30;99.70
6293;DHT22;3179;54.350;10.102;2023-04-25T02:37:10;10.20;99.70
6293;DHT22;3179;54.350;10.102;2023-04-25T02:39:37;10.20;99.50
6293;DHT22;3179;54.350;10.102;2023-04-25T02:42:04;10.20;99.60
6293;DHT22;3179;54.350;10.102;2023-04-25T02:44:30;10.20;99.50
6293;DHT22;3179;54.350;10.102;2023-04-25T02:46:57;10.20;99.60
6293;DHT22;3179;54.350;10.102;2023-04-25T02:49:25;10.20;99.50
6293;DHT22;3179;54.350;10.102;2023-04-25T02:51:52;10.20;99.50
6293;DHT22;3179;54.350;10.102;2023-04-25T02:54:19;10.20;99.40
6293;DHT22;3179;54.350;10.102;2023-04-25T02:56:46;10.20;99.30
6293;DHT22;3179;54.350;10.102;2023-04-25T02:59:13;10.10;99.20
6293;DHT22;3179;54.350;10.102;2023-04-25T03:01:40;10.10;99.30
6293;DHT22;3179;54.350;10.102;2023-04-25T03:04:06;10.10;99.10
6293;DHT22;3179;54.350;10.102;2023-04-25T03:06:34;10.10;99.10
6293;DHT22;3179;54.350;10.102;2023-04-25T03:09:01;10.10;99.00
6293;DHT22;3179;54.350;10.102;2023-04-25T03:11:29;10.10;99.10
6293;DHT22;3179;54.350;10.102;2023-04-25T03:13:55;10.10;99.40
6293;DHT22;3179;54.350;10.102;2023-04-25T03:16:23;10.10;99.10
6293;DHT22;3179;54.350;10.102;2023-04-25T03:18:50;10.00;99.00
6293;DHT22;3179;54.350;10.102;2023-04-25T03:21:17;10.00;98.70
6293;DHT22;3179;54.350;10.102;2023-04-25T03:23:45;10.00;98.80
6293;DHT22;3179;54.350;10.102;2023-04-25T03:26:12;10.00;98.60
6293;DHT22;3179;54.350;10.102;2023-04-25T03:28:39;10.00;98.70
6293;DHT22;3179;54.350;10.102;2023-04-25T03:31:06;9.90;98.90
6293;DHT22;3179;54.350;10.102;2023-04-25T03:33:33;9.90;99.10
6293;DHT22;3179;54.350;10.102;2023-04-25T03:35:59;9.90;99.00
6293;DHT22;3179;54.350;10.102;2023-04-25T03:38:26;10.00;98.50
6293;DHT22;3179;54.350;10.102;2023-04-25T03:40:54;10.00;98.50
6293;DHT22;3179;54.350;10.102;2023-04-25T03:43:22;9.90;98.60
6293;DHT22;3179;54.350;10.102;2023-04-25T03:45:48;9.90;98.60
6293;DHT22;3179;54.350;10.102;2023-04-25T03:48:15;9.90;98.70
6293;DHT22;3179;54.350;10.102;2023-04-25T03:50:42;9.90;98.80
6293;DHT22;3179;54.350;10.102;2023-04-25T03:53:09;9.90;98.70
6293;DHT22;3179;54.350;10.102;2023-04-25T03:55:36;9.90;98.70
6293;DHT22;3179;54.350;10.102;2023-04-25T03:58:04;9.90;98.30
6293;DHT22;3179;54.350;10.102;2023-04-25T04:00:31;9.90;98.40
6293;DHT22;3179;54.350;10.102;2023-04-25T04:02:58;9.90;98.10
6293;DHT22;3179;54.350;10.102;2023-04-25T04:05:24;9.90;98.10
6293;DHT22;3179;54.350;10.102;2023-04-25T04:07:51;9.90;98.30
6293;DHT22;3179;54.350;10.102;2023-04-25T04:10:18;9.80;97.90
6293;DHT22;3179;54.350;10.102;2023-04-25T04:12:45;9.80;97.70
6293;DHT22;3179;54.350;10.102;2023-04-25T04:15:13;9.80;97.80
6293;DHT22;3179;54.350;10.102;2023-04-25T04:17:39;9.80;97.40
6293;DHT22;3179;54.350;10.102;2023-04-25T04:20:07;9.80;97.70
6293;DHT22;3179;54.350;10.102;2023-04-25T04:22:35;9.80;97.50
6293;DHT22;3179;54.350;10.102;2023-04-25T04:25:01;9.80;97.70
6293;DHT22;3179;54.350;10.102;2023-04-25T04:27:31;9.80;97.60
6293;DHT22;3179;54.350;10.102;2023-04-25T04:29:58;9.70;97.40
6293;DHT22;3179;54.350;10.102;2023-04-25T04:32:27;9.70;97.30
6293;DHT22;3179;54.350;10.102;2023-04-25T04:34:55;9.70;97.30
6293;DHT22;3179;54.350;10.102;2023-04-25T04:37:22;9.70;97.20
6293;DHT22;3179;54.350;10.102;2023-04-25T04:39:49;9.70;97.40
6293;DHT22;3179;54.350;10.102;2023-04-25T04:42:17;9.70;97.20
6293;DHT22;3179;54.350;10.102;2023-04-25T04:44:44;9.70;96.80
6293;DHT22;3179;54.350;10.102;2023-04-25T04:47:11;9.70;96.70
6293;DHT22;3179;54.350;10.102;2023-04-25T04:49:40;9.70;96.80
6293;DHT22;3179;54.350;10.102;2023-04-25T04:52:07;9.70;96.80
6293;DHT22;3179;54.350;10.102;2023-04-25T04:54:34;9.70;96.80
6293;DHT22;3179;54.350;10.102;2023-04-25T04:57:01;9.70;97.10
6293;DHT22;3179;54.350;10.102;2023-04-25T04:59:28;9.70;97.00
6293;DHT22;3179;54.350;10.102;2023-04-25T05:01:55;9.70;96.80
6293;DHT22;3179;54.350;10.102;2023-04-25T05:04:22;9.70;96.80
6293;DHT22;3179;54.350;10.102;2023-04-25T05:06:50;9.70;96.80
6293;DHT22;3179;54.350;10.102;2023-04-25T05:09:16;9.70;97.00
6293;DHT22;3179;54.350;10.102;2023-04-25T05:11:44;9.70;96.70
6293;DHT22;3179;54.350;10.102;2023-04-25T05:14:11;9.80;96.90
6293;DHT22;3179;54.350;10.102;2023-04-25T05:16:38;9.80;96.90
6293;DHT22;3179;54.350;10.102;2023-04-25T05:19:04;9.70;96.50
6293;DHT22;3179;54.350;10.102;2023-04-25T05:21:31;9.70;96.40
6293;DHT22;3179;54.350;10.102;2023-04-25T05:23:59;9.70;96.50
6293;DHT22;3179;54.350;10.102;2023-04-25T05:26:26;9.70;96.60
6293;DHT22;3179;54.350;10.102;2023-04-25T05:28:56;9.70;96.70
6293;DHT22;3179;54.350;10.102;2023-04-25T05:31:23;9.80;96.60
6293;DHT22;3179;54.350;10.102;2023-04-25T05:33:50;9.70;96.60
6293;DHT22;3179;54.350;10.102;2023-04-25T05:36:17;9.70;96.60
6293;DHT22;3179;54.350;10.102;2023-04-25T05:38:44;9.80;96.70
6293;DHT22;3179;54.350;10.102;2023-04-25T05:41:13;9.80;96.80
6293;DHT22;3179;54.350;10.102;2023-04-25T05:43:39;9.80;96.70
6293;DHT22;3179;54.350;10.102;2023-04-25T05:46:10;9.80;96.50
6293;DHT22;3179;54.350;10.102;2023-04-25T05:48:37;9.80;96.60
6293;DHT22;3179;54.350;10.102;2023-04-25T05:51:04;9.80;96.80
6293;DHT22;3179;54.350;10.102;2023-04-25T05:53:31;9.90;96.70
6293;DHT22;3179;54.350;10.102;2023-04-25T05:55:57;9.90;96.70
6293;DHT22;3179;54.350;10.102;2023-04-25T05:58:26;9.90;96.70
6293;DHT22;3179;54.350;10.102;2023-04-25T06:00:52;9.90;96.70
6293;DHT22;3179;54.350;10.102;2023-04-25T06:03:19;9.90;96.60
6293;DHT22;3179;54.350;10.102;2023-04-25T06:05:46;9.90;96.60
6293;DHT22;3179;54.350;10.102;2023-04-25T06:08:13;9.80;96.60
6293;DHT22;3179;54.350;10.102;2023-04-25T06:10:40;9.90;96.90
6293;DHT22;3179;54.350;10.102;2023-04-25T06:13:07;9.90;96.90
6293;DHT22;3179;54.350;10.102;2023-04-25T06:15:35;9.90;96.80
6293;DHT22;3179;54.350;10.102;2023-04-25T06:18:01;9.90;96.70
6293;DHT22;3179;54.350;10.102;2023-04-25T06:20:28;9.90;96.80
6293;DHT22;3179;54.350;10.102;2023-04-25T06:22:55;9.90;96.20
6293;DHT22;3179;54.350;10.102;2023-04-25T06:25:22;9.90;96.30
6293;DHT22;3179;54.350;10.102;2023-04-25T06:27:49;9.90;96.20
6293;DHT22;3179;54.350;10.102;2023-04-25T06:30:16;9.90;96.00
6293;DHT22;3179;54.350;10.102;2023-04-25T06:32:45;10.00;95.80
6293;DHT22;3179;54.350;10.102;2023-04-25T06:35:11;9.90;96.00
6293;DHT22;3179;54.350;10.102;2023-04-25T06:37:38;10.00;95.40
6293;DHT22;3179;54.350;10.102;2023-04-25T06:40:09;10.00;95.30
6293;DHT22;3179;54.350;10.102;2023-04-25T06:42:43;10.00;95.00
6293;DHT22;3179;54.350;10.102;2023-04-25T06:45:10;9.90;95.50
6293;DHT22;3179;54.350;10.102;2023-04-25T06:47:37;9.90;95.60
6293;DHT22;3179;54.350;10.102;2023-04-25T06:50:06;9.90;95.50
6293;DHT22;3179;54.350;10.102;2023-04-25T06:52:33;9.90;95.30
6293;DHT22;3179;54.350;10.102;2023-04-25T06:55:00;9.90;95.40
6293;DHT22;3179;54.350;10.102;2023-04-25T06:57:26;9.90;95.50
6293;DHT22;3179;54.350;10.102;2023-04-25T06:59:53;10.00;95.00
6293;DHT22;3179;54.350;10.102;2023-04-25T07:02:20;10.00;94.70
6293;DHT22;3179;54.350;10.102;2023-04-25T07:04:47;10.00;94.50
6293;DHT22;3179;54.350;10.102;2023-04-25T07:07:16;10.00;94.90
6293;DHT22;3179;54.350;10.102;2023-04-25T07:09:42;10.00;95.10
6293;DHT22;3179;54.350;10.102;2023-04-25T07:12:10;10.00;95.10
6293;DHT22;3179;54.350;10.102;2023-04-25T07:14:36;10.00;95.10
6293;DHT22;3179;54.350;10.102;2023-04-25T07:17:03;10.00;95.40
6293;DHT22;3179;54.350;10.102;2023-04-25T07:19:32;10.10;95.10
6293;DHT22;3179;54.350;10.102;2023-04-25T07:21:58;10.10;95.40
6293;DHT22;3179;54.350;10.102;2023-04-25T07:24:27;10.10;95.10
6293;DHT22;3179;54.350;10.102;2023-04-25T07:26:54;10.10;95.40
6293;DHT22;3179;54.350;10.102;2023-04-25T07:29:20;10.10;95.10
6293;DHT22;3179;54.350;10.102;2023-04-25T07:31:47;10.10;95.30
6293;DHT22;3179;54.350;10.102;2023-04-25T07:34:14;10.10;95.60
6293;DHT22;3179;54.350;10.102;2023-04-25T07:36:41;10.10;95.60
6293;DHT22;3179;54.350;10.102;2023-04-25T07:39:07;10.20;95.70
6293;DHT22;3179;54.350;10.102;2023-04-25T07:41:36;10.20;95.60
6293;DHT22;3179;54.350;10.102;2023-04-25T07:44:03;10.20;95.60
6293;DHT22;3179;54.350;10.102;2023-04-25T07:46:29;10.30;95.50
6293;DHT22;3179;54.350;10.102;2023-04-25T07:48:56;10.30;95.50
6293;DHT22;3179;54.350;10.102;2023-04-25T07:51:23;10.20;95.70
6293;DHT22;3179;54.350;10.102;2023-04-25T07:53:50;10.30;95.70
6293;DHT22;3179;54.350;10.102;2023-04-25T07:56:16;10.40;95.50
6293;DHT22;3179;54.350;10.102;2023-04-25T07:58:44;10.40;95.70
6293;DHT22;3179;54.350;10.102;2023-04-25T08:01:11;10.40;95.30
6293;DHT22;3179;54.350;10.102;2023-04-25T08:03:38;10.50;95.40
6293;DHT22;3179;54.350;10.102;2023-04-25T08:06:05;10.50;95.40
6293;DHT22;3179;54.350;10.102;2023-04-25T08:08:32;10.50;95.50
6293;DHT22;3179;54.350;10.102;2023-04-25T08:10:59;10.50;95.40
6293;DHT22;3179;54.350;10.102;2023-04-25T08:13:25;10.50;95.30
6293;DHT22;3179;54.350;10.102;2023-04-25T08:15:54;10.50;95.30
6293;DHT22;3179;54.350;10.102;2023-04-25T08:18:21;10.50;94.90
6293;DHT22;3179;54.350;10.102;2023-04-25T08:20:47;10.60;95.00
6293;DHT22;3179;54.350;10.102;2023-04-25T08:23:14;10.60;94.50
6293;DHT22;3179;54.350;10.102;2023-04-25T08:25:41;10.60;94.90
6293;DHT22;3179;54.350;10.102;2023-04-25T08:28:08;10.70;94.80
6293;DHT22;3179;54.350;10.102;2023-04-25T08:30:34;10.70;94.20
6293;DHT22;3179;54.350;10.102;2023-04-25T08:33:03;10.70;93.80
6293;DHT22;3179;54.350;10.102;2023-04-25T08:35:29;10.70;93.80
6293;DHT22;3179;54.350;10.102;2023-04-25T08:37:56;10.70;93.70
6293;DHT22;3179;54.350;10.102;2023-04-25T08:40:23;10.80;93.60
6293;DHT22;3179;54.350;10.102;2023-04-25T08:42:56;10.80;92.90
6293;DHT22;3179;54.350;10.102;2023-04-25T08:45:23;10.80;93.10
6293;DHT22;3179;54.350;10.102;2023-04-25T08:47:51;10.80;93.20
6293;DHT22;3179;54.350;10.102;2023-04-25T08:50:19;10.70;92.30
6293;DHT22;3179;54.350;10.102;2023-04-25T08:52:47;10.60;93.00
6293;DHT22;3179;54.350;10.102;2023-04-25T08:55:18;10.60;93.60
6293;DHT22;3179;54.350;10.102;2023-04-25T08:57:46;10.70;93.60
6293;DHT22;3179;54.350;10.102;2023-04-25T09:00:13;10.70;93.70
6293;DHT22;3179;54.350;10.102;2023-04-25T09:02:40;10.80;93.70
6293;DHT22;3179;54.350;10.102;2023-04-25T09:05:09;10.90;93.70
6293;DHT22;3179;54.350;10.102;2023-04-25T09:07:37;10.90;93.80
6293;DHT22;3179;54.350;10.102;2023-04-25T09:10:04;11.00;94.00
6293;DHT22;3179;54.350;10.102;2023-04-25T09:12:31;11.00;94.00
6293;DHT22;3179;54.350;10.102;2023-04-25T09:15:03;11.00;94.10
6293;DHT22;3179;54.350;10.102;2023-04-25T09:17:31;11.10;94.10
6293;DHT22;3179;54.350;10.102;2023-04-25T09:20:06;11.10;94.20
6293;DHT22;3179;54.350;10.102;2023-04-25T09:22:34;11.10;93.90
6293;DHT22;3179;54.350;10.102;2023-04-25T09:25:04;11.00;94.00
6293;DHT22;3179;54.350;10.102;2023-04-25T09:27:34;11.20;93.90
6293;DHT22;3179;54.350;10.102;2023-04-25T09:30:01;11.20;93.80
6293;DHT22;3179;54.350;10.102;2023-04-25T09:32:28;11.30;93.90
6293;DHT22;3179;54.350;10.102;2023-04-25T09:34:56;11.30;93.70
6293;DHT22;3179;54.350;10.102;2023-04-25T09:37:24;11.30;93.20
6293;DHT22;3179;54.350;10.102;2023-04-25T09:39:53;11.30;93.50
6293;DHT22;3179;54.350;10.102;2023-04-25T09:42:24;11.40;93.70
6293;DHT22;3179;54.350;10.102;2023-04-25T09:44:53;11.40;93.40
6293;DHT22;3179;54.350;10.102;2023-04-25T09:47:20;11.40;93.70
6293;DHT22;3179;54.350;10.102;2023-04-25T09:49:49;11.50;93.80
6293;DHT22;3179;54.350;10.102;2023-04-25T09:52:17;11.50;93.90
6293;DHT22;3179;54.350;10.102;2023-04-25T09:54:46;11.60;93.50
6293;DHT22;3179;54.350;10.102;2023-04-25T09:57:15;11.60;93.40
6293;DHT22;3179;54.350;10.102;2023-04-25T09:59:48;11.60;93.40
6293;DHT22;3179;54.350;10.102;2023-04-25T10:02:17;11.60;92.90
6293;DHT22;3179;54.350;10.102;2023-04-25T10:04:48;11.50;93.30
6293;DHT22;3179;54.350;10.102;2023-04-25T10:07:16;11.40;93.20
6293;DHT22;3179;54.350;10.102;2023-04-25T10:09:43;11.40;93.30
6293;DHT22;3179;54.350;10.102;2023-04-25T10:12:12;11.30;93.70
6293;DHT22;3179;54.350;10.102;2023-04-25T10:14:39;11.20;94.90
6293;DHT22;3179;54.350;10.102;2023-04-25T10:17:10;11.10;95.20
6293;DHT22;3179;54.350;10.102;2023-04-25T10:19:37;11.00;96.00
6293;DHT22;3179;54.350;10.102;2023-04-25T10:22:07;11.00;96.30
6293;DHT22;3179;54.350;10.102;2023-04-25T10:24:35;11.10;96.60
6293;DHT22;3179;54.350;10.102;2023-04-25T10:27:03;11.10;97.00
6293;DHT22;3179;54.350;10.102;2023-04-25T10:29:30;11.20;96.80
6293;DHT22;3179;54.350;10.102;2023-04-25T10:31:57;11.40;96.80
6293;DHT22;3179;54.350;10.102;2023-04-25T10:34:38;11.60;96.50
6293;DHT22;3179;54.350;10.102;2023-04-25T10:37:08;11.70;97.00
6293;DHT22;3179;54.350;10.102;2023-04-25T10:39:35;11.70;96.30
6293;DHT22;3179;54.350;10.102;2023-04-25T10:42:02;11.70;96.30
6293;DHT22;3179;54.350;10.102;2023-04-25T10:44:30;11.70;96.10
6293;DHT22;3179;54.350;10.102;2023-04-25T10:46:57;11.60;95.90
6293;DHT22;3179;54.350;10.102;2023-04-25T10:49:33;11.60;96.10
6293;DHT22;3179;54.350;10.102;2023-04-25T10:52:24;11.70;96.20
6293;DHT22;3179;54.350;10.102;2023-04-25T10:54:52;11.70;95.90
6293;DHT22;3179;54.350;10.102;2023-04-25T10:57:29;11.80;96.10
6293;DHT22;3179;54.350;10.102;2023-04-25T11:00:15;11.90;96.00
6293;DHT22;3179;54.350;10.102;2023-04-25T11:02:44;12.10;96.20
6293;DHT22;3179;54.350;10.102;2023-04-25T11:05:20;12.20;95.90
6293;DHT22;3179;54.350;10.102;2023-04-25T11:07:50;12.30;96.00
6293;DHT22;3179;54.350;10.102;2023-04-25T11:10:18;12.20;95.50
6293;DHT22;3179;54.350;10.102;2023-04-25T11:12:45;12.10;95.70
6293;DHT22;3179;54.350;10.102;2023-04-25T11:15:13;12.00;95.60
6293;DHT22;3179;54.350;10.102;2023-04-25T11:17:40;11.90;95.30
6293;DHT22;3179;54.350;10.102;2023-04-25T11:20:07;12.00;95.30
6293;DHT22;3179;54.350;10.102;2023-04-25T11:22:38;11.90;95.20
6293;DHT22;3179;54.350;10.102;2023-04-25T11:25:08;11.90;94.70
6293;DHT22;3179;54.350;10.102;2023-04-25T11:27:38;11.90;94.20
6293;DHT22;3179;54.350;10.102;2023-04-25T11:30:14;11.90;94.00
6293;DHT22;3179;54.350;10.102;2023-04-25T11:32:42;12.00;93.90
6293;DHT22;3179;54.350;10.102;2023-04-25T11:35:09;12.00;94.10
6293;DHT22;3179;54.350;10.102;2023-04-25T11:37:38;12.10;94.00
6293;DHT22;3179;54.350;10.102;2023-04-25T11:40:07;12.20;94.10
6293;DHT22;3179;54.350;10.102;2023-04-25T11:42:36;12.40;94.40
6293;DHT22;3179;54.350;10.102;2023-04-25T11:45:04;12.60;94.40
6293;DHT22;3179;54.350;10.102;2023-04-25T11:47:33;12.70;94.10
6293;DHT22;3179;54.350;10.102;2023-04-25T11:50:00;12.80;94.50
6293;DHT22;3179;54.350;10.102;2023-04-25T11:52:39;12.70;94.10
6293;DHT22;3179;54.350;10.102;2023-04-25T11:55:08;12.50;93.60
6293;DHT22;3179;54.350;10.102;2023-04-25T11:57:35;12.30;93.70
6293;DHT22;3179;54.350;10.102;2023-04-25T12:00:07;12.30;93.70
6293;DHT22;3179;54.350;10.102;2023-04-25T12:02:36;12.30;93.40
6293;DHT22;3179;54.350;10.102;2023-04-25T12:05:06;12.30;93.30
6293;DHT22;3179;54.350;10.102;2023-04-25T12:07:33;12.30;93.40
6293;DHT22;3179;54.350;10.102;2023-04-25T12:10:04;12.40;93.50
6293;DHT22;3179;54.350;10.102;2023-04-25T12:12:32;12.40;93.30
6293;DHT22;3179;54.350;10.102;2023-04-25T12:15:08;12.50;93.30
6293;DHT22;3179;54.350;10.102;2023-04-25T12:17:36;12.60;93.40
6293;DHT22;3179;54.350;10.102;2023-04-25T12:20:07;12.60;93.40
6293;DHT22;3179;54.350;10.102;2023-04-25T12:22:34;12.70;93.50
6293;DHT22;3179;54.350;10.102;2023-04-25T12:25:03;12.90;93.80
6293;DHT22;3179;54.350;10.102;2023-04-25T12:27:31;13.00;93.80
6293;DHT22;3179;54.350;10.102;2023-04-25T12:29:58;12.90;93.50
6293;DHT22;3179;54.350;10.102;2023-04-25T12:32:25;12.90;93.00
6293;DHT22;3179;54.350;10.102;2023-04-25T12:34:51;12.80;93.30
6293;DHT22;3179;54.350;10.102;2023-04-25T12:37:18;12.80;93.10
6293;DHT22;3179;54.350;10.102;2023-04-25T12:39:45;12.80;93.10
6293;DHT22;3179;54.350;10.102;2023-04-25T12:42:13;12.90;93.50
6293;DHT22;3179;54.350;10.102;2023-04-25T12:44:40;13.00;93.20
6293;DHT22;3179;54.350;10.102;2023-04-25T12:47:07;13.10;93.50
6293;DHT22;3179;54.350;10.102;2023-04-25T12:49:34;12.90;93.20
6293;DHT22;3179;54.350;10.102;2023-04-25T12:52:01;12.70;93.40
6293;DHT22;3179;54.350;10.102;2023-04-25T12:54:27;12.60;93.70
6293;DHT22;3179;54.350;10.102;2023-04-25T12:56:54;12.50;93.80
6293;DHT22;3179;54.350;10.102;2023-04-25T12:59:22;12.40;93.80
6293;DHT22;3179;54.350;10.102;2023-04-25T13:01:49;12.40;93.70
6293;DHT22;3179;54.350;10.102;2023-04-25T13:04:16;12.40;93.30
6293;DHT22;3179;54.350;10.102;2023-04-25T13:06:43;12.40;93.50
6293;DHT22;3179;54.350;10.102;2023-04-25T13:09:09;12.50;93.70
6293;DHT22;3179;54.350;10.102;2023-04-25T13:11:37;12.60;93.80
6293;DHT22;3179;54.350;10.102;2023-04-25T13:14:04;12.70;93.40
6293;DHT22;3179;54.350;10.102;2023-04-25T13:16:33;12.80;93.20
6293;DHT22;3179;54.350;10.102;2023-04-25T13:19:00;13.00;93.30
6293;DHT22;3179;54.350;10.102;2023-04-25T13:21:29;13.20;93.40
6293;DHT22;3179;54.350;10.102;2023-04-25T13:23:56;13.30;93.30
6293;DHT22;3179;54.350;10.102;2023-04-25T13:26:23;13.50;93.50
6293;DHT22;3179;54.350;10.102;2023-04-25T13:28:49;13.70;93.30
6293;DHT22;3179;54.350;10.102;2023-04-25T13:31:16;13.80;93.40
6293;DHT22;3179;54.350;10.102;2023-04-25T13:33:44;13.90;93.10
6293;DHT22;3179;54.350;10.102;2023-04-25T13:36:11;13.80;93.00
6293;DHT22;3179;54.350;10.102;2023-04-25T13:38:38;13.60;93.00
6293;DHT22;3179;54.350;10.102;2023-04-25T13:41:06;13.30;93.20
6293;DHT22;3179;54.350;10.102;2023-04-25T13:43:33;13.00;93.80
6293;DHT22;3179;54.350;10.102;2023-04-25T13:46:00;12.70;94.00
6293;DHT22;3179;54.350;10.102;2023-04-25T13:48:27;12.40;94.30
6293;DHT22;3179;54.350;10.102;2023-04-25T13:50:55;12.20;94.30
6293;DHT22;3179;54.350;10.102;2023-04-25T13:53:22;12.30;94.50
6293;DHT22;3179;54.350;10.102;2023-04-25T13:55:49;12.30;95.00
6293;DHT22;3179;54.350;10.102;2023-04-25T13:58:16;12.40;94.90
6293;DHT22;3179;54.350;10.102;2023-04-25T14:00:43;12.30;94.90
6293;DHT22;3179;54.350;10.102;2023-04-25T14:03:11;12.20;94.80
6293;DHT22;3179;54.350;10.102;2023-04-25T14:05:38;12.00;94.90
6293;DHT22;3179;54.350;10.102;2023-04-25T14:08:08;11.90;94.60
6293;DHT22;3179;54.350;10.102;2023-04-25T14:10:36;11.80;94.70
6293;DHT22;3179;54.350;10.102;2023-04-25T14:13:04;11.90;95.30
6293;DHT22;3179;54.350;10.102;2023-04-25T14:15:31;11.90;95.30
6293;DHT22;3179;54.350;10.102;2023-04-25T14:17:58;12.00;95.40
6293;DHT22;3179;54.350;10.102;2023-04-25T14:20:25;11.90;95.50
6293;DHT22;3179;54.350;10.102;2023-04-25T14:22:52;11.90;95.70
6293;DHT22;3179;54.350;10.102;2023-04-25T14:25:21;11.60;94.60
6293;DHT22;3179;54.350;10.102;2023-04-25T14:27:48;11.50;94.90
6293;DHT22;3179;54.350;10.102;2023-04-25T14:30:16;11.40;95.30
6293;DHT22;3179;54.350;10.102;2023-04-25T14:32:43;11.40;95.10
6293;DHT22;3179;54.350;10.102;2023-04-25T14:35:10;11.50;95.00
6293;DHT22;3179;54.350;10.102;2023-04-25T14:37:37;11.60;94.90
6293;DHT22;3179;54.350;10.102;2023-04-25T14:40:04;11.90;95.50
6293;DHT22;3179;54.350;10.102;2023-04-25T14:42:34;12.20;95.40
6293;DHT22;3179;54.350;10.102;2023-04-25T14:45:01;12.90;95.40
6293;DHT22;3179;54.350;10.102;2023-04-25T14:47:27;13.70;95.10
6293;DHT22;3179;54.350;10.102;2023-04-25T14:49:54;14.40;94.50
6293;DHT22;3179;54.350;10.102;2023-04-25T14:52:21;14.80;94.40
6293;DHT22;3179;54.350;10.102;2023-04-25T14:54:48;15.10;94.10
6293;DHT22;3179;54.350;10.102;2023-04-25T14:57:15;15.40;93.50
6293;DHT22;3179;54.350;10.102;2023-04-25T14:59:43;15.50;91.80
6293;DHT22;3179;54.350;10.102;2023-04-25T15:02:11;15.80;92.80
6293;DHT22;3179;54.350;10.102;2023-04-25T15:04:38;15.90;92.70
6293;DHT22;3179;54.350;10.102;2023-04-25T15:07:05;15.80;92.60
6293;DHT22;3179;54.350;10.102;2023-04-25T15:09:31;15.50;92.20
6293;DHT22;3179;54.350;10.102;2023-04-25T15:11:58;15.20;92.20
6293;DHT22;3179;54.350;10.102;2023-04-25T15:14:26;14.80;92.10
6293;DHT22;3179;54.350;10.102;2023-04-25T15:16:54;14.40;92.20
6293;DHT22;3179;54.350;10.102;2023-04-25T15:19:20;14.10;92.40
6293;DHT22;3179;54.350;10.102;2023-04-25T15:21:47;13.80;92.40
6293;DHT22;3179;54.350;10.102;2023-04-25T15:24:14;13.60;92.60
6293;DHT22;3179;54.350;10.102;2023-04-25T15:26:41;13.50;92.90
6293;DHT22;3179;54.350;10.102;2023-04-25T15:29:08;14.00;93.70
6293;DHT22;3179;54.350;10.102;2023-04-25T15:31:35;14.60;93.80
6293;DHT22;3179;54.350;10.102;2023-04-25T15:34:04;14.90;94.00
6293;DHT22;3179;54.350;10.102;2023-04-25T15:36:30;14.60;93.60
6293;DHT22;3179;54.350;10.102;2023-04-25T15:38:57;14.20;93.70
6293;DHT22;3179;54.350;10.102;2023-04-25T15:41:24;14.00;93.40
6293;DHT22;3179;54.350;10.102;2023-04-25T15:43:52;14.60;92.90
6293;DHT22;3179;54.350;10.102;2023-04-25T15:46:19;15.40;92.40
6293;DHT22;3179;54.350;10.102;2023-04-25T15:48:46;15.90;91.50
6293;DHT22;3179;54.350;10.102;2023-04-25T15:51:14;16.40;91.30
6293;DHT22;3179;54.350;10.102;2023-04-25T15:53:41;16.10;91.20